メインページ
METAR-TAF:

METAR-TAF

空港 :

出雲, 日本

出雲空港

緯度: 35-25N, 経度: 132-54E, 海抜: 2m

現時点の気象観測

当レポートは54分前の23:00(UTC)に作成
変向風 2kt
気温 1°C
湿度 86%
気圧 1023 hPa
視程10km以上
高度3000ftの雲はほとんどない
高度3500ftの雲は散在している
高度4500ftの千切れ雲あり

METAR: RJOC 182300Z VRB02KT 9999 FEW030 SCT035 BKN045 01/M01 Q1023

時間: 08:54 (23:54 UTC)

予報

当レポートは41分前の23:13(UTC)に作成
予報は19日の 00時(UTC)から 20日の 06時(UTC)まで有効
西/北西の風 4kt
視程10km以上
高度3500ftの雲はほとんどない
19日の 02時(UTC)から 19日の 04時(UTC)まで徐々に
北/北東の風 5kt
19日の 09時(UTC)から 19日の 11時(UTC)まで徐々に
南/南東の風 5kt
19日の 18時(UTC)から 20日の 00時(UTC)まで一時的に
視程: 2000m
靄, 部分的に霧に覆われる
20日の 00時(UTC)から 20日の 03時(UTC)まで徐々に
北/北東の風 5kt

TAF: RJOC 182313Z 1900/2006 29004KT 9999 FEW035 BECMG 1902/1904 02005KT BECMG 1909/1911 16005KT TEMPO 1918/2000 2000 BR PRFG BECMG 2000/2003 02005KT

4,000以上の空港の気象観測と天気予報(METAR報とTAF報)

利用可能な観測所は地図上に黄色い丸と赤い丸で示す。

丸の上にカーソルを重ねると観測所名を参照できる。

次にクリックすると気象観測と天気予報を参照できる。

マップの切り替え:黒色「×」印の緑ボタンをクリックして拡大、「-」印の緑ボタンをクリックして縮小、緑色の三角印をクリックして隣りの地図に切り替え


METAR-TAF: